Philip — WDF2430 — position and weather

sailwx.info

Track history (hours):
 
Tides and Currents Weather Stations Pressure Air Temp Water Temp Dewpoint Dewpoint Depression Visibility Wind Speed Wind Dir Waves Ship Positions

Philip

Owner: Enterprise Marine Services, LLC, San Antonio, TX. More information available from US FCC via Universal Licensing System and Coast Guard Vessel Documentation Center.

Last reported at 2018-Feb-21 22:02 UTC. Time now 2018-Feb-23 06:23 UTC.
Position N 29°36' W 094°22'.

Length 23 m; draft 2.7 m.

Type: Tug. MMSI: 367003780.

Date/timePositionNaut miles runAvg speedWind from/ knotsBaromVisibWave heightAir tempDewpointWater temp
2018-Feb-21 22:02N 29°36' W 094°22'0 5.7
2018-Feb-21 22:00N 29°37' W 094°22'2 2.6
2018-Feb-21 21:20N 29°37' W 094°20'0 0.0
2018-Feb-21 20:42N 29°37' W 094°20'0 0.0
2018-Feb-21 20:30N 29°37' W 094°20'0 0.0
2018-Feb-21 19:48N 29°37' W 094°20'0 0.0
2018-Feb-21 19:16N 29°37' W 094°20'0 0.0
2018-Feb-21 18:58N 29°37' W 094°20'0 0.0
2018-Feb-21 18:29N 29°37' W 094°20'0 0.9
2018-Feb-21 18:00N 29°38' W 094°19'3 5.6
2018-Feb-21 17:30N 29°39' W 094°17'2 4.7
2018-Feb-21 17:00N 29°40' W 094°14'3 5.1
2018-Feb-21 16:30N 29°41' W 094°12'3 6.4
2018-Feb-21 16:00N 29°42' W 094°08'0 0.4
2018-Feb-21 15:31N 29°42' W 094°08'0 0.8
2018-Feb-21 15:00N 29°43' W 094°08'2 4.4
2018-Feb-21 14:31N 29°44' W 094°06'2 5.0
2018-Feb-21 14:00N 29°46' W 094°04'0 0.5
2018-Feb-21 13:30N 29°46' W 094°03'3 5.3
2018-Feb-21 13:00N 29°47' W 094°01'2 4.7
2018-Feb-21 12:31N 29°49' W 093°59'1 1.2
2018-Feb-21 12:00N 29°49' W 093°58'0 0.0
2018-Feb-21 11:30N 29°49' W 093°58'0 0.0
2018-Feb-21 11:00N 29°49' W 093°58'0 0.0
2018-Feb-21 10:30N 29°49' W 093°58'0 0.0
2018-Feb-21 10:00N 29°49' W 093°58'0 0.0
2018-Feb-21 09:31N 29°49' W 093°58'0 0.0
2018-Feb-21 09:01N 29°49' W 093°58'0 0.0
2018-Feb-21 08:30N 29°49' W 093°58'0 0.0
2018-Feb-21 08:00N 29°49' W 093°58'0 0.0
2018-Feb-21 07:30N 29°49' W 093°58'0 0.0
2018-Feb-21 07:00N 29°49' W 093°58'0 0.0
2018-Feb-21 06:31N 29°49' W 093°58'0 0.0
2018-Feb-21 06:01N 29°49' W 093°58'0 0.0
2018-Feb-21 05:30N 29°49' W 093°58'0 0.0
2018-Feb-21 05:00N 29°49' W 093°58'0 0.0
2018-Feb-21 04:30N 29°49' W 093°58'0 0.0
2018-Feb-21 04:00N 29°49' W 093°58'0 0.0
2018-Feb-21 03:31N 29°49' W 093°58'0 0.0
2018-Feb-21 03:00N 29°49' W 093°58'0 0.0
2018-Feb-21 02:31N 29°49' W 093°58'0 0.0
2018-Feb-21 02:00N 29°49' W 093°58'1 1.7
2018-Feb-21 01:30N 29°50' W 093°58'1 2.3
2018-Feb-21 01:01N 29°51' W 093°58'0 0.0
2018-Feb-21 00:31N 29°51' W 093°58'0 0.0
2018-Feb-21 00:01N 29°51' W 093°58'0 0.0
2018-Feb-20 23:31N 29°51' W 093°58'0 0.0
2018-Feb-20 23:00N 29°51' W 093°58'0 0.0
2018-Feb-20 22:30N 29°51' W 093°58'0 0.0
2018-Feb-20 22:00N 29°51' W 093°58'0 0.0
2018-Feb-20 21:30N 29°51' W 093°58'0 0.0
2018-Feb-20 21:00N 29°51' W 093°58'0 0.0
2018-Feb-20 20:30N 29°51' W 093°58'0 0.0
2018-Feb-20 20:01N 29°51' W 093°58'0 0.0
2018-Feb-20 19:31N 29°51' W 093°58'1 2.5
2018-Feb-20 19:01N 29°50' W 093°58'0 0.0
2018-Feb-20 18:31N 29°50' W 093°58'0 0.0
2018-Feb-20 18:01N 29°50' W 093°58'0 0.0
2018-Feb-20 17:30N 29°50' W 093°58'0 0.0
2018-Feb-20 17:01N 29°50' W 093°58'0 0.0
2018-Feb-20 16:31N 29°50' W 093°58'0 0.0
2018-Feb-20 16:00N 29°50' W 093°58'0 0.4
2018-Feb-20 15:31N 29°50' W 093°58'1 2.0
2018-Feb-20 15:01N 29°51' W 093°58'0 0.0
2018-Feb-20 14:31N 29°51' W 093°58'0 0.0
2018-Feb-20 14:01N 29°51' W 093°58'0 0.0
2018-Feb-20 13:31N 29°51' W 093°58'0 0.0
2018-Feb-20 13:01N 29°51' W 093°58'0 0.0
2018-Feb-20 12:31N 29°51' W 093°58'0 0.0
2018-Feb-20 12:01N 29°51' W 093°58'0 0.0
2018-Feb-20 11:31N 29°51' W 093°58'0 0.0
2018-Feb-20 11:01N 29°51' W 093°58'0 0.0
2018-Feb-20 10:30N 29°51' W 093°58'0 0.0
2018-Feb-20 10:00N 29°51' W 093°58'0 0.0
2018-Feb-20 09:31N 29°51' W 093°58'0 0.0
2018-Feb-20 09:01N 29°51' W 093°58'0 0.0
2018-Feb-20 08:31N 29°51' W 093°58'0 0.0
2018-Feb-20 08:01N 29°51' W 093°58'0 0.0
2018-Feb-20 07:31N 29°51' W 093°58'0 0.0
2018-Feb-20 07:01N 29°51' W 093°58'0 0.0
2018-Feb-20 06:30N 29°51' W 093°58'0 0.0
2018-Feb-20 06:01N 29°51' W 093°58'0 0.0
2018-Feb-20 05:31N 29°51' W 093°58'0 0.0
2018-Feb-20 05:01N 29°51' W 093°58'0 0.0
2018-Feb-20 04:31N 29°51' W 093°58'0 0.0
2018-Feb-20 04:01N 29°51' W 093°58'0 0.0
2018-Feb-20 03:31N 29°51' W 093°58'0 0.0
2018-Feb-20 03:01N 29°51' W 093°58'0 0.0
2018-Feb-20 02:30N 29°51' W 093°58'0 0.0
2018-Feb-20 02:01N 29°51' W 093°58'0 0.0
2018-Feb-20 01:31N 29°51' W 093°58'0 0.0
2018-Feb-20 01:01N 29°51' W 093°58'0 0.0
2018-Feb-20 00:31N 29°51' W 093°58'0 0.0
2018-Feb-20 00:00N 29°51' W 093°58'0 0.0
2018-Feb-19 23:31N 29°51' W 093°58'0 0.0
2018-Feb-19 23:00N 29°51' W 093°58'0 0.0
2018-Feb-19 22:31N 29°51' W 093°58'0 0.0
2018-Feb-19 22:01N 29°51' W 093°58'0 0.0
2018-Feb-19 21:31N 29°51' W 093°58'0 0.0
2018-Feb-19 21:01N 29°51' W 093°58'0 0.0
2018-Feb-19 20:30N 29°51' W 093°58'0 0.0
2018-Feb-19 20:00N 29°51' W 093°58'0 0.0
2018-Feb-19 19:31N 29°51' W 093°58'0 0.0
2018-Feb-19 19:00N 29°51' W 093°58'0 0.0
2018-Feb-19 18:30N 29°51' W 093°58'0 0.0
2018-Feb-19 18:00N 29°51' W 093°58'0 0.0
2018-Feb-19 17:31N 29°51' W 093°58'0 0.0
2018-Feb-19 17:00N 29°51' W 093°58'0 0.0
2018-Feb-19 16:30N 29°51' W 093°58'1 1.9
2018-Feb-19 16:00N 29°50' W 093°58'1 1.8
2018-Feb-19 15:30N 29°49' W 093°58'1 1.8
2018-Feb-19 15:00N 29°49' W 093°59'1 1.7
2018-Feb-19 14:30N 29°50' W 093°59'0 0.2
2018-Feb-19 14:00N 29°50' W 093°59'0 0.2
2018-Feb-19 13:30N 29°50' W 093°59'0 0.0
2018-Feb-19 13:00N 29°50' W 093°59'0 0.0
2018-Feb-19 12:27N 29°50' W 093°59'0 0.0
2018-Feb-19 12:00N 29°50' W 093°59'0 0.0
2018-Feb-19 11:30N 29°50' W 093°59'0 0.0
2018-Feb-19 11:00N 29°50' W 093°59'0 0.0
2018-Feb-19 10:30N 29°50' W 093°59'0 0.0
2018-Feb-19 10:00N 29°50' W 093°59'0 0.0
2018-Feb-19 09:27N 29°50' W 093°59'0 0.0
2018-Feb-19 09:00N 29°50' W 093°59'0 0.0
2018-Feb-19 08:30N 29°50' W 093°59'0 0.0
2018-Feb-19 08:00N 29°50' W 093°59'0 0.0
2018-Feb-19 07:24N 29°50' W 093°59'0 0.0
2018-Feb-19 07:00N 29°50' W 093°59'0 0.0
2018-Feb-19 06:30N 29°50' W 093°59'0 0.0
2018-Feb-19 06:00N 29°50' W 093°59'0 0.0
2018-Feb-19 05:30N 29°50' W 093°59'0 0.0
2018-Feb-19 05:00N 29°50' W 093°59'0 0.0
2018-Feb-19 04:30N 29°50' W 093°59'0 0.0
2018-Feb-19 04:00N 29°50' W 093°59'0 0.0
2018-Feb-19 03:30N 29°50' W 093°59'0 0.0
2018-Feb-19 03:00N 29°50' W 093°59'0 0.0
2018-Feb-19 02:27N 29°50' W 093°59'0 0.0
2018-Feb-19 02:00N 29°50' W 093°59'0 0.0
2018-Feb-19 01:30N 29°50' W 093°59'0 0.0
2018-Feb-19 01:00N 29°50' W 093°59'0 0.0
2018-Feb-19 00:30N 29°50' W 093°59'0 0.0
2018-Feb-19 00:00N 29°50' W 093°59'0 0.0
2018-Feb-18 23:30N 29°50' W 093°59'0 0.0
2018-Feb-18 23:00N 29°50' W 093°59'0 0.0
2018-Feb-18 22:30N 29°50' W 093°59'0 0.0
2018-Feb-18 22:00N 29°50' W 093°59'0 0.0
2018-Feb-18 21:30N 29°50' W 093°59'0 0.0
2018-Feb-18 21:00N 29°50' W 093°59'0 0.0
2018-Feb-18 20:30N 29°50' W 093°59'0 0.0
2018-Feb-18 20:00N 29°50' W 093°59'0 0.0
2018-Feb-18 19:30N 29°50' W 093°59'0 0.0
2018-Feb-18 19:00N 29°50' W 093°59'0 0.0
2018-Feb-18 18:30N 29°50' W 093°59'0 0.0
2018-Feb-18 17:59N 29°50' W 093°59'0 0.0
2018-Feb-18 17:28N 29°50' W 093°59'0 0.0
2018-Feb-18 16:59N 29°50' W 093°59'0 0.0
2018-Feb-18 16:29N 29°50' W 093°59'0 0.0
2018-Feb-18 15:59N 29°50' W 093°59'0 0.0
2018-Feb-18 15:29N 29°50' W 093°59'0 0.0
2018-Feb-18 14:58N 29°50' W 093°59'0 0.0
2018-Feb-18 14:28N 29°50' W 093°59'0 0.0
2018-Feb-18 13:59N 29°50' W 093°59'0 0.0
2018-Feb-18 13:29N 29°50' W 093°59'0 0.0
2018-Feb-18 12:59N 29°50' W 093°59'0 0.0
2018-Feb-18 12:28N 29°50' W 093°59'0 0.0
2018-Feb-18 11:58N 29°50' W 093°59'0 0.0
2018-Feb-18 11:29N 29°50' W 093°59'0 0.0
2018-Feb-18 10:59N 29°50' W 093°59'0 0.0
2018-Feb-18 10:29N 29°50' W 093°59'0 0.0
2018-Feb-18 09:59N 29°50' W 093°59'0 0.0
2018-Feb-18 09:29N 29°50' W 093°59'0 0.0
2018-Feb-18 08:59N 29°50' W 093°59'0 0.0
2018-Feb-18 08:29N 29°50' W 093°59'0 0.0
2018-Feb-18 07:59N 29°50' W 093°59'0 0.0
2018-Feb-18 07:28N 29°50' W 093°59'0 0.0
2018-Feb-18 06:58N 29°50' W 093°59'0 0.0
2018-Feb-18 06:28N 29°50' W 093°59'0 0.0
2018-Feb-18 05:58N 29°50' W 093°59'0 0.0
2018-Feb-18 05:25N 29°50' W 093°59'0 0.0
2018-Feb-18 04:55N 29°50' W 093°59'0 0.0
2018-Feb-18 04:26N 29°50' W 093°59'0 0.0
2018-Feb-18 03:59N 29°50' W 093°59'0 0.0
2018-Feb-18 03:28N 29°50' W 093°59'0 0.0
2018-Feb-18 02:58N 29°50' W 093°59'0 0.0
2018-Feb-18 02:26N 29°50' W 093°59'0 0.0
2018-Feb-18 01:58N 29°50' W 093°59'0 0.0
2018-Feb-18 01:28N 29°50' W 093°59'0 0.0
2018-Feb-18 00:58N 29°50' W 093°59'0 0.0
2018-Feb-18 00:31N 29°50' W 093°59'0 0.1
2018-Feb-18 00:00N 29°50' W 093°59'0 0.0
2018-Feb-17 23:31N 29°50' W 093°59'1 2.2
2018-Feb-17 23:01N 29°49' W 093°60'2 4.0
2018-Feb-17 22:30N 29°47' W 094°01'3 5.1
2018-Feb-17 22:01N 29°46' W 094°03'3 5.2
2018-Feb-17 21:30N 29°44' W 094°06'3 5.1
2018-Feb-17 21:00N 29°42' W 094°08'3 5.1
2018-Feb-17 20:30N 29°41' W 094°11'3 5.1
2018-Feb-17 20:00N 29°40' W 094°13'3 5.1
2018-Feb-17 19:30N 29°39' W 094°16'3 5.0
2018-Feb-17 18:59N 29°38' W 094°19'2 3.2
2018-Feb-17 18:27N 29°37' W 094°20'3 4.7
2018-Feb-17 17:52N 29°36' W 094°23'2 3.7
2018-Feb-17 17:25N 29°35' W 094°25'2 3.3
2018-Feb-17 16:51N 29°34' W 094°26'7 0.9
2018-Feb-17 08:53N 29°30' W 094°33'0 0.0
2018-Feb-17 08:27N 29°30' W 094°33'0 0.0
2018-Feb-17 07:56N 29°30' W 094°33'0 0.0
2018-Feb-17 06:01N 29°30' W 094°33'0 0.0
2018-Feb-17 05:47N 29°30' W 094°33'0 0.0
2018-Feb-17 05:06N 29°30' W 094°33'0 0.0
2018-Feb-17 04:50N 29°30' W 094°33'0 0.0
2018-Feb-17 03:41N 29°30' W 094°33'0 0.1
2018-Feb-17 03:30N 29°30' W 094°33'0 0.0
2018-Feb-17 02:44N 29°30' W 094°33'0 0.0
2018-Feb-17 02:26N 29°30' W 094°33'0 0.0
2018-Feb-17 01:58N 29°30' W 094°33'0 0.0
2018-Feb-17 01:14N 29°30' W 094°33'0 0.0
2018-Feb-17 01:00N 29°30' W 094°33'0 0.0
2018-Feb-17 00:30N 29°30' W 094°33'0 0.6
2018-Feb-17 00:00N 29°30' W 094°34'1 1.6
2018-Feb-16 23:24N 29°30' W 094°35'1 1.3
2018-Feb-16 22:51N 29°29' W 094°35'13 3.0
2018-Feb-16 18:30N 29°26' W 094°50'4 7.9
2018-Feb-16 18:00N 29°30' W 094°52'3 7.0
2018-Feb-16 17:30N 29°33' W 094°54'4 7.0
2018-Feb-16 17:00N 29°36' W 094°57'3 6.9
2018-Feb-16 16:30N 29°39' W 094°58'4 7.3
2018-Feb-16 16:00N 29°42' W 095°00'3 6.0
2018-Feb-16 15:30N 29°44' W 095°03'3 5.2
2018-Feb-16 14:55N 29°47' W 095°05'10 0.3
2018-Feb-15 07:57N 29°43' W 095°15'12 1.2
2018-Feb-14 21:52N 29°42' W 095°01'2 5.2
2018-Feb-14 21:30N 29°41' W 094°59'1 1.8
2018-Feb-14 20:57N 29°41' W 095°00'0 0.0
2018-Feb-14 20:27N 29°41' W 095°00'0 0.0
2018-Feb-14 19:57N 29°41' W 095°00'0 0.0
2018-Feb-14 19:25N 29°41' W 095°00'0 0.0
2018-Feb-14 18:53N 29°41' W 095°00'0 0.0
2018-Feb-14 18:17N 29°41' W 095°00'0 0.0
2018-Feb-14 18:00N 29°41' W 095°00'0 0.0
2018-Feb-14 17:30N 29°41' W 095°00'0 0.0
2018-Feb-14 16:59N 29°41' W 095°00'0 0.0
2018-Feb-14 16:26N 29°41' W 095°00'0 0.0
2018-Feb-14 16:00N 29°41' W 095°00'0 0.0
2018-Feb-14 15:05N 29°41' W 095°00'0 0.1
2018-Feb-14 14:58N 29°41' W 095°00'0 0.0
2018-Feb-14 09:44N 29°41' W 095°00'0 0.0
2018-Feb-14 07:56N 29°41' W 095°00'0 0.0
2018-Feb-14 03:07N 29°41' W 095°00'0 0.0
2018-Feb-14 02:59N 29°41' W 095°00'0 0.0
2018-Feb-14 02:30N 29°41' W 095°00'0 0.0
2018-Feb-14 01:56N 29°41' W 095°00'0 0.0
2018-Feb-14 01:22N 29°41' W 095°00'0 0.7
2018-Feb-14 00:57N 29°41' W 095°00'4 5.9
2018-Feb-14 00:19N 29°38' W 094°58'2 7.4
2018-Feb-14 00:00N 29°36' W 094°57'4 7.7
2018-Feb-13 23:30N 29°33' W 094°54'  
Track history (hours):
 
Tides and Currents Weather Stations Pressure Air Temp Water Temp Dewpoint Dewpoint Depression Visibility Wind Speed Wind Dir Waves Ship Positions

Philip

Owner: Enterprise Marine Services, LLC, San Antonio, TX. More information available from US FCC via Universal Licensing System and Coast Guard Vessel Documentation Center.

Last reported at 2018-Feb-21 22:02 UTC. Time now 2018-Feb-23 06:23 UTC.
Position N 29°36' W 094°22'.

Length 23 m; draft 2.7 m.

Type: Tug. MMSI: 367003780.

Date/timePositionNaut miles runAvg speedWind from/ knotsBaromVisibWave heightAir tempDewpointWater temp
2018-Feb-21 22:02N 29°36' W 094°22'0 5.7
2018-Feb-21 22:00N 29°37' W 094°22'2 2.6
2018-Feb-21 21:20N 29°37' W 094°20'0 0.0
2018-Feb-21 20:42N 29°37' W 094°20'0 0.0
2018-Feb-21 20:30N 29°37' W 094°20'0 0.0
2018-Feb-21 19:48N 29°37' W 094°20'0 0.0
2018-Feb-21 19:16N 29°37' W 094°20'0 0.0
2018-Feb-21 18:58N 29°37' W 094°20'0 0.0
2018-Feb-21 18:29N 29°37' W 094°20'0 0.9
2018-Feb-21 18:00N 29°38' W 094°19'3 5.6
2018-Feb-21 17:30N 29°39' W 094°17'2 4.7
2018-Feb-21 17:00N 29°40' W 094°14'3 5.1
2018-Feb-21 16:30N 29°41' W 094°12'3 6.4
2018-Feb-21 16:00N 29°42' W 094°08'0 0.4
2018-Feb-21 15:31N 29°42' W 094°08'0 0.8
2018-Feb-21 15:00N 29°43' W 094°08'2 4.4
2018-Feb-21 14:31N 29°44' W 094°06'2 5.0
2018-Feb-21 14:00N 29°46' W 094°04'0 0.5
2018-Feb-21 13:30N 29°46' W 094°03'3 5.3
2018-Feb-21 13:00N 29°47' W 094°01'2 4.7
2018-Feb-21 12:31N 29°49' W 093°59'1 1.2
2018-Feb-21 12:00N 29°49' W 093°58'0 0.0
2018-Feb-21 11:30N 29°49' W 093°58'0 0.0
2018-Feb-21 11:00N 29°49' W 093°58'0 0.0
2018-Feb-21 10:30N 29°49' W 093°58'0 0.0
2018-Feb-21 10:00N 29°49' W 093°58'0 0.0
2018-Feb-21 09:31N 29°49' W 093°58'0 0.0
2018-Feb-21 09:01N 29°49' W 093°58'0 0.0
2018-Feb-21 08:30N 29°49' W 093°58'0 0.0
2018-Feb-21 08:00N 29°49' W 093°58'0 0.0
2018-Feb-21 07:30N 29°49' W 093°58'0 0.0
2018-Feb-21 07:00N 29°49' W 093°58'0 0.0
2018-Feb-21 06:31N 29°49' W 093°58'0 0.0
2018-Feb-21 06:01N 29°49' W 093°58'0 0.0
2018-Feb-21 05:30N 29°49' W 093°58'0 0.0
2018-Feb-21 05:00N 29°49' W 093°58'0 0.0
2018-Feb-21 04:30N 29°49' W 093°58'0 0.0
2018-Feb-21 04:00N 29°49' W 093°58'0 0.0
2018-Feb-21 03:31N 29°49' W 093°58'0 0.0
2018-Feb-21 03:00N 29°49' W 093°58'0 0.0
2018-Feb-21 02:31N 29°49' W 093°58'0 0.0
2018-Feb-21 02:00N 29°49' W 093°58'1 1.7
2018-Feb-21 01:30N 29°50' W 093°58'1 2.3
2018-Feb-21 01:01N 29°51' W 093°58'0 0.0
2018-Feb-21 00:31N 29°51' W 093°58'0 0.0
2018-Feb-21 00:01N 29°51' W 093°58'0 0.0
2018-Feb-20 23:31N 29°51' W 093°58'0 0.0
2018-Feb-20 23:00N 29°51' W 093°58'0 0.0
2018-Feb-20 22:30N 29°51' W 093°58'0 0.0
2018-Feb-20 22:00N 29°51' W 093°58'0 0.0
2018-Feb-20 21:30N 29°51' W 093°58'0 0.0
2018-Feb-20 21:00N 29°51' W 093°58'0 0.0
2018-Feb-20 20:30N 29°51' W 093°58'0 0.0
2018-Feb-20 20:01N 29°51' W 093°58'0 0.0
2018-Feb-20 19:31N 29°51' W 093°58'1 2.5
2018-Feb-20 19:01N 29°50' W 093°58'0 0.0
2018-Feb-20 18:31N 29°50' W 093°58'0 0.0
2018-Feb-20 18:01N 29°50' W 093°58'0 0.0
2018-Feb-20 17:30N 29°50' W 093°58'0 0.0
2018-Feb-20 17:01N 29°50' W 093°58'0 0.0
2018-Feb-20 16:31N 29°50' W 093°58'0 0.0
2018-Feb-20 16:00N 29°50' W 093°58'0 0.4
2018-Feb-20 15:31N 29°50' W 093°58'1 2.0
2018-Feb-20 15:01N 29°51' W 093°58'0 0.0
2018-Feb-20 14:31N 29°51' W 093°58'0 0.0
2018-Feb-20 14:01N 29°51' W 093°58'0 0.0
2018-Feb-20 13:31N 29°51' W 093°58'0 0.0
2018-Feb-20 13:01N 29°51' W 093°58'0 0.0
2018-Feb-20 12:31N 29°51' W 093°58'0 0.0
2018-Feb-20 12:01N 29°51' W 093°58'0 0.0
2018-Feb-20 11:31N 29°51' W 093°58'0 0.0
2018-Feb-20 11:01N 29°51' W 093°58'0 0.0
2018-Feb-20 10:30N 29°51' W 093°58'0 0.0
2018-Feb-20 10:00N 29°51' W 093°58'0 0.0
2018-Feb-20 09:31N 29°51' W 093°58'0 0.0
2018-Feb-20 09:01N 29°51' W 093°58'0 0.0
2018-Feb-20 08:31N 29°51' W 093°58'0 0.0
2018-Feb-20 08:01N 29°51' W 093°58'0 0.0
2018-Feb-20 07:31N 29°51' W 093°58'0 0.0
2018-Feb-20 07:01N 29°51' W 093°58'0 0.0
2018-Feb-20 06:30N 29°51' W 093°58'0 0.0
2018-Feb-20 06:01N 29°51' W 093°58'0 0.0
2018-Feb-20 05:31N 29°51' W 093°58'0 0.0
2018-Feb-20 05:01N 29°51' W 093°58'0 0.0
2018-Feb-20 04:31N 29°51' W 093°58'0 0.0
2018-Feb-20 04:01N 29°51' W 093°58'0 0.0
2018-Feb-20 03:31N 29°51' W 093°58'0 0.0
2018-Feb-20 03:01N 29°51' W 093°58'0 0.0
2018-Feb-20 02:30N 29°51' W 093°58'0 0.0
2018-Feb-20 02:01N 29°51' W 093°58'0 0.0
2018-Feb-20 01:31N 29°51' W 093°58'0 0.0
2018-Feb-20 01:01N 29°51' W 093°58'0 0.0
2018-Feb-20 00:31N 29°51' W 093°58'0 0.0
2018-Feb-20 00:00N 29°51' W 093°58'0 0.0
2018-Feb-19 23:31N 29°51' W 093°58'0 0.0
2018-Feb-19 23:00N 29°51' W 093°58'0 0.0
2018-Feb-19 22:31N 29°51' W 093°58'0 0.0
2018-Feb-19 22:01N 29°51' W 093°58'0 0.0
2018-Feb-19 21:31N 29°51' W 093°58'0 0.0
2018-Feb-19 21:01N 29°51' W 093°58'0 0.0
2018-Feb-19 20:30N 29°51' W 093°58'0 0.0
2018-Feb-19 20:00N 29°51' W 093°58'0 0.0
2018-Feb-19 19:31N 29°51' W 093°58'0 0.0
2018-Feb-19 19:00N 29°51' W 093°58'0 0.0
2018-Feb-19 18:30N 29°51' W 093°58'0 0.0
2018-Feb-19 18:00N 29°51' W 093°58'0 0.0
2018-Feb-19 17:31N 29°51' W 093°58'0 0.0
2018-Feb-19 17:00N 29°51' W 093°58'0 0.0
2018-Feb-19 16:30N 29°51' W 093°58'1 1.9
2018-Feb-19 16:00N 29°50' W 093°58'1 1.8
2018-Feb-19 15:30N 29°49' W 093°58'1 1.8
2018-Feb-19 15:00N 29°49' W 093°59'1 1.7
2018-Feb-19 14:30N 29°50' W 093°59'0 0.2
2018-Feb-19 14:00N 29°50' W 093°59'0 0.2
2018-Feb-19 13:30N 29°50' W 093°59'0 0.0
2018-Feb-19 13:00N 29°50' W 093°59'0 0.0
2018-Feb-19 12:27N 29°50' W 093°59'0 0.0
2018-Feb-19 12:00N 29°50' W 093°59'0 0.0
2018-Feb-19 11:30N 29°50' W 093°59'0 0.0
2018-Feb-19 11:00N 29°50' W 093°59'0 0.0
2018-Feb-19 10:30N 29°50' W 093°59'0 0.0
2018-Feb-19 10:00N 29°50' W 093°59'0 0.0
2018-Feb-19 09:27N 29°50' W 093°59'0 0.0
2018-Feb-19 09:00N 29°50' W 093°59'0 0.0
2018-Feb-19 08:30N 29°50' W 093°59'0 0.0
2018-Feb-19 08:00N 29°50' W 093°59'0 0.0
2018-Feb-19 07:24N 29°50' W 093°59'0 0.0
2018-Feb-19 07:00N 29°50' W 093°59'0 0.0
2018-Feb-19 06:30N 29°50' W 093°59'0 0.0
2018-Feb-19 06:00N 29°50' W 093°59'0 0.0
2018-Feb-19 05:30N 29°50' W 093°59'0 0.0
2018-Feb-19 05:00N 29°50' W 093°59'0 0.0
2018-Feb-19 04:30N 29°50' W 093°59'0 0.0
2018-Feb-19 04:00N 29°50' W 093°59'0 0.0
2018-Feb-19 03:30N 29°50' W 093°59'0 0.0
2018-Feb-19 03:00N 29°50' W 093°59'0 0.0
2018-Feb-19 02:27N 29°50' W 093°59'0 0.0
2018-Feb-19 02:00N 29°50' W 093°59'0 0.0
2018-Feb-19 01:30N 29°50' W 093°59'0 0.0
2018-Feb-19 01:00N 29°50' W 093°59'0 0.0
2018-Feb-19 00:30N 29°50' W 093°59'0 0.0
2018-Feb-19 00:00N 29°50' W 093°59'0 0.0
2018-Feb-18 23:30N 29°50' W 093°59'0 0.0
2018-Feb-18 23:00N 29°50' W 093°59'0 0.0
2018-Feb-18 22:30N 29°50' W 093°59'0 0.0
2018-Feb-18 22:00N 29°50' W 093°59'0 0.0
2018-Feb-18 21:30N 29°50' W 093°59'0 0.0
2018-Feb-18 21:00N 29°50' W 093°59'0 0.0
2018-Feb-18 20:30N 29°50' W 093°59'0 0.0
2018-Feb-18 20:00N 29°50' W 093°59'0 0.0
2018-Feb-18 19:30N 29°50' W 093°59'0 0.0
2018-Feb-18 19:00N 29°50' W 093°59'0 0.0
2018-Feb-18 18:30N 29°50' W 093°59'0 0.0
2018-Feb-18 17:59N 29°50' W 093°59'0 0.0
2018-Feb-18 17:28N 29°50' W 093°59'0 0.0
2018-Feb-18 16:59N 29°50' W 093°59'0 0.0
2018-Feb-18 16:29N 29°50' W 093°59'0 0.0
2018-Feb-18 15:59N 29°50' W 093°59'0 0.0
2018-Feb-18 15:29N 29°50' W 093°59'0 0.0
2018-Feb-18 14:58N 29°50' W 093°59'0 0.0
2018-Feb-18 14:28N 29°50' W 093°59'0 0.0
2018-Feb-18 13:59N 29°50' W 093°59'0 0.0
2018-Feb-18 13:29N 29°50' W 093°59'0 0.0
2018-Feb-18 12:59N 29°50' W 093°59'0 0.0
2018-Feb-18 12:28N 29°50' W 093°59'0 0.0
2018-Feb-18 11:58N 29°50' W 093°59'0 0.0
2018-Feb-18 11:29N 29°50' W 093°59'0 0.0
2018-Feb-18 10:59N 29°50' W 093°59'0 0.0
2018-Feb-18 10:29N 29°50' W 093°59'0 0.0
2018-Feb-18 09:59N 29°50' W 093°59'0 0.0
2018-Feb-18 09:29N 29°50' W 093°59'0 0.0
2018-Feb-18 08:59N 29°50' W 093°59'0 0.0
2018-Feb-18 08:29N 29°50' W 093°59'0 0.0
2018-Feb-18 07:59N 29°50' W 093°59'0 0.0
2018-Feb-18 07:28N 29°50' W 093°59'0 0.0
2018-Feb-18 06:58N 29°50' W 093°59'0 0.0
2018-Feb-18 06:28N 29°50' W 093°59'0 0.0
2018-Feb-18 05:58N 29°50' W 093°59'0 0.0
2018-Feb-18 05:25N 29°50' W 093°59'0 0.0
2018-Feb-18 04:55N 29°50' W 093°59'0 0.0
2018-Feb-18 04:26N 29°50' W 093°59'0 0.0
2018-Feb-18 03:59N 29°50' W 093°59'0 0.0
2018-Feb-18 03:28N 29°50' W 093°59'0 0.0
2018-Feb-18 02:58N 29°50' W 093°59'0 0.0
2018-Feb-18 02:26N 29°50' W 093°59'0 0.0
2018-Feb-18 01:58N 29°50' W 093°59'0 0.0
2018-Feb-18 01:28N 29°50' W 093°59'0 0.0
2018-Feb-18 00:58N 29°50' W 093°59'0 0.0
2018-Feb-18 00:31N 29°50' W 093°59'0 0.1
2018-Feb-18 00:00N 29°50' W 093°59'0 0.0
2018-Feb-17 23:31N 29°50' W 093°59'1 2.2
2018-Feb-17 23:01N 29°49' W 093°60'2 4.0
2018-Feb-17 22:30N 29°47' W 094°01'3 5.1
2018-Feb-17 22:01N 29°46' W 094°03'3 5.2
2018-Feb-17 21:30N 29°44' W 094°06'3 5.1
2018-Feb-17 21:00N 29°42' W 094°08'3 5.1
2018-Feb-17 20:30N 29°41' W 094°11'3 5.1
2018-Feb-17 20:00N 29°40' W 094°13'3 5.1
2018-Feb-17 19:30N 29°39' W 094°16'3 5.0
2018-Feb-17 18:59N 29°38' W 094°19'2 3.2
2018-Feb-17 18:27N 29°37' W 094°20'3 4.7
2018-Feb-17 17:52N 29°36' W 094°23'2 3.7
2018-Feb-17 17:25N 29°35' W 094°25'2 3.3
2018-Feb-17 16:51N 29°34' W 094°26'7 0.9
2018-Feb-17 08:53N 29°30' W 094°33'0 0.0
2018-Feb-17 08:27N 29°30' W 094°33'0 0.0
2018-Feb-17 07:56N 29°30' W 094°33'0 0.0
2018-Feb-17 06:01N 29°30' W 094°33'0 0.0
2018-Feb-17 05:47N 29°30' W 094°33'0 0.0
2018-Feb-17 05:06N 29°30' W 094°33'0 0.0
2018-Feb-17 04:50N 29°30' W 094°33'0 0.0
2018-Feb-17 03:41N 29°30' W 094°33'0 0.1
2018-Feb-17 03:30N 29°30' W 094°33'0 0.0
2018-Feb-17 02:44N 29°30' W 094°33'0 0.0
2018-Feb-17 02:26N 29°30' W 094°33'0 0.0
2018-Feb-17 01:58N 29°30' W 094°33'0 0.0
2018-Feb-17 01:14N 29°30' W 094°33'0 0.0
2018-Feb-17 01:00N 29°30' W 094°33'0 0.0
2018-Feb-17 00:30N 29°30' W 094°33'0 0.6
2018-Feb-17 00:00N 29°30' W 094°34'1 1.6
2018-Feb-16 23:24N 29°30' W 094°35'1 1.3
2018-Feb-16 22:51N 29°29' W 094°35'13 3.0
2018-Feb-16 18:30N 29°26' W 094°50'4 7.9
2018-Feb-16 18:00N 29°30' W 094°52'3 7.0
2018-Feb-16 17:30N 29°33' W 094°54'4 7.0
2018-Feb-16 17:00N 29°36' W 094°57'3 6.9
2018-Feb-16 16:30N 29°39' W 094°58'4 7.3
2018-Feb-16 16:00N 29°42' W 095°00'3 6.0
2018-Feb-16 15:30N 29°44' W 095°03'3 5.2
2018-Feb-16 14:55N 29°47' W 095°05'10 0.3
2018-Feb-15 07:57N 29°43' W 095°15'12 1.2
2018-Feb-14 21:52N 29°42' W 095°01'2 5.2
2018-Feb-14 21:30N 29°41' W 094°59'1 1.8
2018-Feb-14 20:57N 29°41' W 095°00'0 0.0
2018-Feb-14 20:27N 29°41' W 095°00'0 0.0
2018-Feb-14 19:57N 29°41' W 095°00'0 0.0
2018-Feb-14 19:25N 29°41' W 095°00'0 0.0
2018-Feb-14 18:53N 29°41' W 095°00'0 0.0
2018-Feb-14 18:17N 29°41' W 095°00'0 0.0
2018-Feb-14 18:00N 29°41' W 095°00'0 0.0
2018-Feb-14 17:30N 29°41' W 095°00'0 0.0
2018-Feb-14 16:59N 29°41' W 095°00'0 0.0
2018-Feb-14 16:26N 29°41' W 095°00'0 0.0
2018-Feb-14 16:00N 29°41' W 095°00'0 0.0
2018-Feb-14 15:05N 29°41' W 095°00'0 0.1
2018-Feb-14 14:58N 29°41' W 095°00'0 0.0
2018-Feb-14 09:44N 29°41' W 095°00'0 0.0
2018-Feb-14 07:56N 29°41' W 095°00'0 0.0
2018-Feb-14 03:07N 29°41' W 095°00'0 0.0
2018-Feb-14 02:59N 29°41' W 095°00'0 0.0
2018-Feb-14 02:30N 29°41' W 095°00'0 0.0
2018-Feb-14 01:56N 29°41' W 095°00'0 0.0
2018-Feb-14 01:22N 29°41' W 095°00'0 0.7
2018-Feb-14 00:57N 29°41' W 095°00'4 5.9
2018-Feb-14 00:19N 29°38' W 094°58'2 7.4
2018-Feb-14 00:00N 29°36' W 094°57'4 7.7
2018-Feb-13 23:30N 29°33' W 094°54'  

Dump ship's entire track history